KRYY/RYY METAR and TAF weather

Enter ICAO airport designator
Station Type Date Time Source
KRYY METAR 2019/08/24 06:50 UTC NOAA

KRYY 240650Z AUTO 00000KT 10SM CLR 24/23 A3004 RMK AO2 SLP892 T02390228 $


Station Type Date Time Source
KRYY Decoded METAR 2019/08/24 06:50 UTC NOAA

Station name not available
Aug 24, 2019 - 02:50 AM EDT / 2019.08.24 0650 UTC
Wind: Calm:0
Visibility: 10 mile(s):0
Sky conditions: clear
Temperature: 75.0 F (23.9 C)
Dew Point: 73.0 F (22.8 C)
Relative Humidity: 93%
Pressure (altimeter): 30.04 in. Hg (1017 hPa)
ob: KRYY 240650Z AUTO 00000KT 10SM CLR 24/23 A3004 RMK AO2 SLP892 T02390228
cycle: 7

Station Type Date Time Source
KRYY TAF 2019/08/24 06:42 UTC NOAA

TAF KRYY 240540Z 2406/2506 00000KT P6SM FEW050 SCT150 BKN250
FM241100 00000KT P6SM FEW006 SCT150
FM241400 VRB03KT P6SM SCT030 SCT250
FM241700 02004KT P6SM VCSH BKN040 PROB30 2418/2424 5SM TSRA BKN035CB
FM250100 09007KT P6SM VCSH BKN030
FM250400 09008KT P6SM BKN015

Example: see airport list